Pagrindinis puslapis
METAR-TAF:

METAR-TAF

Oro uostai :

Heliport

Værøy, Norvegija

platuma: 67-39-16N, ilguma: 12-43-37E, Aukštis: 5 m

Dabartinis oras

Ataskaita buvo paskelbta 2 valandos ir 1 minutes, ne 13:50 UTC
Vėjas 22 kt iš Pietų/Pietvakarių su gūsio iki 32 kt
Temperatūra 5°C
Drėgmė 81%
Slėgis 971 hPa
Matomumas 10 km arba daugiau
Išsisklaidę debesys ne aukštis 3500 ft
Su prošvaistėmis ne aukštis 7500 ft
Liūtis kaimynystėje

METAR: ENVR 211350Z 20022G32KT 9999 VCSH SCT035 BKN075 05/02 Q0971

Laikas: 16:51 (15:51 UTC)


TAF: trūkstamas

Orai ataskaitas ir orų prognozės (METAR, TAF).

turimą stotys yra geltonos ir raudonos taškus žemėlapyje.

Perkelti pele per norėdami pamatyti stoties vardą.

Tada spustelėkite, norėdami matyti oro stebėjimo ir prognozės.

Norėdami pakeisti žemėlapį: spustelėkite ant žalios mygtukų su juodo kryžiaus žemyn,; žalią mygtuką su brūkšneliu, jei norite nutolinti; arba žalių rodyklių gretimoms žemėlapius.


METAR-TAF: